createdAt,value
2023-05-24T00:01:59.830Z,100.00
2023-05-24T00:04:30.348Z,100.00
2023-05-24T00:06:58.179Z,100.00
2023-05-24T00:09:24.689Z,100.00
2023-05-24T00:11:51.123Z,100.00
2023-05-24T00:14:17.612Z,100.00
2023-05-24T00:16:44.157Z,100.00
2023-05-24T00:19:11.358Z,100.00
2023-05-24T00:21:38.511Z,100.00
2023-05-24T00:24:05.069Z,100.00
2023-05-24T00:26:31.514Z,100.00
2023-05-24T00:28:57.929Z,100.00
2023-05-24T00:31:24.356Z,100.00
2023-05-24T00:33:50.774Z,100.00
2023-05-24T00:36:17.493Z,100.00
2023-05-24T00:38:43.914Z,100.00
2023-05-24T00:41:11.534Z,100.00
2023-05-24T00:43:38.206Z,100.00
2023-05-24T00:46:33.160Z,100.00
2023-05-24T00:49:01.414Z,100.00
2023-05-24T00:51:28.201Z,100.00
2023-05-24T00:53:55.457Z,100.00
2023-05-24T00:56:24.063Z,100.00
2023-05-24T00:58:54.678Z,100.00
2023-05-24T01:01:25.608Z,100.00
2023-05-24T01:03:55.275Z,100.00
2023-05-24T01:06:21.940Z,100.00
2023-05-24T01:09:08.158Z,100.00
2023-05-24T01:12:12.295Z,100.00
2023-05-24T01:15:10.320Z,100.00
2023-05-24T01:17:46.328Z,100.00
2023-05-24T01:20:17.054Z,100.00
2023-05-24T01:22:46.262Z,100.00
2023-05-24T01:25:18.197Z,100.00
2023-05-24T01:27:45.190Z,100.00
2023-05-24T01:30:12.423Z,100.00
2023-05-24T01:32:39.002Z,100.00
2023-05-24T01:35:06.101Z,100.00
2023-05-24T01:37:32.569Z,100.00
2023-05-24T01:39:59.670Z,100.00
2023-05-24T01:42:30.795Z,100.00
2023-05-24T01:45:19.737Z,100.00
2023-05-24T01:48:18.790Z,100.00
2023-05-24T01:50:58.891Z,100.00
2023-05-24T01:53:32.732Z,100.00
2023-05-24T01:56:02.168Z,100.00
2023-05-24T01:58:29.995Z,100.00
2023-05-24T02:00:57.602Z,100.00
2023-05-24T02:03:24.058Z,100.00
2023-05-24T02:05:50.647Z,100.00
2023-05-24T02:08:17.142Z,100.00
2023-05-24T02:10:43.801Z,100.00
2023-05-24T02:13:10.547Z,100.00
2023-05-24T02:15:37.093Z,100.00
2023-05-24T02:18:04.281Z,100.00
2023-05-24T02:20:31.324Z,100.00
2023-05-24T02:22:58.434Z,100.00
2023-05-24T02:25:25.026Z,100.00
2023-05-24T02:27:52.090Z,100.00
2023-05-24T02:30:19.152Z,100.00
2023-05-24T02:32:46.486Z,100.00
2023-05-24T02:35:13.238Z,100.00
2023-05-24T02:37:39.807Z,100.00
2023-05-24T02:40:07.067Z,100.00
2023-05-24T02:42:33.538Z,100.00
2023-05-24T02:45:00.002Z,100.00
2023-05-24T02:47:29.160Z,100.00
2023-05-24T02:49:56.857Z,100.00
2023-05-24T02:52:23.426Z,100.00
2023-05-24T02:54:50.188Z,100.00
2023-05-24T02:57:16.690Z,100.00
2023-05-24T02:59:43.551Z,100.00
2023-05-24T03:02:10.104Z,100.00
2023-05-24T03:04:36.602Z,100.00
2023-05-24T03:07:03.324Z,100.00
2023-05-24T03:09:30.014Z,100.00
2023-05-24T03:11:56.436Z,100.00
2023-05-24T03:14:24.804Z,100.00
2023-05-24T03:16:51.642Z,100.00
2023-05-24T03:19:18.167Z,100.00
2023-05-24T03:21:44.670Z,100.00
2023-05-24T03:24:13.104Z,100.00
2023-05-24T03:26:40.696Z,100.00
2023-05-24T03:29:07.226Z,100.00
2023-05-24T03:31:33.777Z,100.00
2023-05-24T03:34:00.290Z,100.00
2023-05-24T03:36:28.033Z,100.00
2023-05-24T03:38:55.216Z,100.00
2023-05-24T03:41:21.642Z,100.00
2023-05-24T03:43:48.070Z,100.00
2023-05-24T03:46:14.539Z,100.00
2023-05-24T03:48:40.994Z,100.00
2023-05-24T03:51:09.208Z,100.00
2023-05-24T03:53:35.666Z,100.00
2023-05-24T03:56:02.175Z,100.00
2023-05-24T03:58:28.607Z,100.00
2023-05-24T04:00:55.041Z,100.00
2023-05-24T04:03:21.634Z,100.00
2023-05-24T04:05:48.220Z,100.00
2023-05-24T04:08:15.037Z,100.00
2023-05-24T04:10:42.194Z,100.00
2023-05-24T04:13:08.953Z,100.00
2023-05-24T04:15:36.111Z,100.00
2023-05-24T04:18:03.375Z,100.00
2023-05-24T04:20:30.029Z,100.00
2023-05-24T04:22:56.676Z,100.00
2023-05-24T04:25:23.306Z,100.00
2023-05-24T04:27:50.243Z,100.00
2023-05-24T04:30:17.069Z,100.00
2023-05-24T04:32:47.441Z,100.00
2023-05-24T04:35:14.285Z,100.00
2023-05-24T04:37:40.973Z,100.00
2023-05-24T04:40:08.616Z,100.00
2023-05-24T04:42:35.619Z,100.00
2023-05-24T04:45:02.299Z,100.00
2023-05-24T04:47:28.948Z,100.00
2023-05-24T04:49:55.412Z,100.00
2023-05-24T04:52:22.016Z,100.00
2023-05-24T04:54:49.476Z,100.00
2023-05-24T04:57:16.036Z,100.00
2023-05-24T04:59:42.663Z,100.00
2023-05-24T05:02:09.214Z,100.00
2023-05-24T05:04:35.760Z,100.00
2023-05-24T05:07:03.676Z,100.00
2023-05-24T05:09:30.463Z,100.00
2023-05-24T05:11:56.968Z,100.00
2023-05-24T05:14:23.438Z,100.00
2023-05-24T05:16:49.994Z,100.00
2023-05-24T05:19:16.540Z,100.00
2023-05-24T05:21:43.068Z,100.00
2023-05-24T05:24:09.604Z,100.00
2023-05-24T05:26:36.098Z,100.00
2023-05-24T05:29:03.710Z,100.00
2023-05-24T05:31:30.826Z,100.00
2023-05-24T05:33:57.265Z,100.00
2023-05-24T05:36:23.705Z,100.00
2023-05-24T05:38:50.135Z,100.00
2023-05-24T05:41:16.570Z,100.00
2023-05-24T05:43:42.997Z,100.00
2023-05-24T05:46:11.137Z,100.00
2023-05-24T05:48:37.707Z,100.00
2023-05-24T05:51:04.179Z,100.00
2023-05-24T05:53:30.702Z,100.00
2023-05-24T05:55:57.126Z,100.00
2023-05-24T05:58:23.531Z,100.00
2023-05-24T06:00:50.100Z,100.00
2023-05-24T06:03:16.836Z,100.00
2023-05-24T06:05:43.371Z,100.00
2023-05-24T06:08:09.886Z,100.00
2023-05-24T06:10:36.376Z,100.00
2023-05-24T06:13:03.900Z,100.00
2023-05-24T06:15:30.720Z,100.00
2023-05-24T06:17:57.337Z,100.00
2023-05-24T06:20:23.828Z,100.00
2023-05-24T06:22:50.744Z,100.00
2023-05-24T06:25:19.185Z,100.00
2023-05-24T06:27:45.790Z,100.00
2023-05-24T06:30:13.590Z,100.00
2023-05-24T06:32:40.281Z,100.00
2023-05-24T06:35:07.951Z,100.00
2023-05-24T06:37:34.754Z,100.00
2023-05-24T06:40:01.418Z,100.00
2023-05-24T06:42:29.731Z,100.00
2023-05-24T06:44:56.169Z,100.00
2023-05-24T06:47:22.765Z,100.00
2023-05-24T06:49:49.969Z,100.00
2023-05-24T06:52:16.655Z,100.00
2023-05-24T06:54:43.198Z,100.00
2023-05-24T06:57:09.671Z,100.00
2023-05-24T06:59:36.203Z,100.00
2023-05-24T07:02:04.227Z,100.00
2023-05-24T07:04:31.090Z,100.00
2023-05-24T07:06:58.226Z,100.00
2023-05-24T07:09:24.805Z,100.00
2023-05-24T07:11:52.809Z,100.00
2023-05-24T07:14:19.451Z,100.00
2023-05-24T07:16:46.737Z,100.00
2023-05-24T07:19:13.712Z,100.00
2023-05-24T07:21:40.282Z,100.00
2023-05-24T07:24:06.976Z,100.00
2023-05-24T07:26:33.587Z,100.00
2023-05-24T07:29:00.147Z,100.00
2023-05-24T07:31:27.368Z,100.00
2023-05-24T07:33:53.872Z,100.00
2023-05-24T07:36:21.341Z,100.00
2023-05-24T07:38:47.889Z,100.00
2023-05-24T07:41:14.615Z,100.00
2023-05-24T07:43:41.102Z,100.00
2023-05-24T07:46:07.579Z,100.00
2023-05-24T07:48:34.044Z,100.00
2023-05-24T07:51:00.880Z,100.00
2023-05-24T07:53:27.361Z,100.00
2023-05-24T07:55:54.060Z,100.00
2023-05-24T07:58:20.574Z,100.00
2023-05-24T08:00:47.076Z,100.00
2023-05-24T08:03:14.734Z,100.00
2023-05-24T08:05:41.693Z,100.00
2023-05-24T08:08:08.389Z,100.00
2023-05-24T08:10:34.911Z,100.00
2023-05-24T08:13:01.500Z,100.00
2023-05-24T08:15:28.053Z,100.00
2023-05-24T08:17:54.816Z,100.00
2023-05-24T08:20:21.516Z,100.00
2023-05-24T08:22:48.660Z,100.00
2023-05-24T08:25:15.951Z,100.00
2023-05-24T08:27:42.581Z,100.00
2023-05-24T08:30:09.448Z,100.00
2023-05-24T08:32:36.499Z,100.00
2023-05-24T08:35:17.607Z,98.97
2023-05-24T08:37:46.084Z,97.66
2023-05-24T08:40:12.818Z,96.54
2023-05-24T08:42:39.843Z,95.64
2023-05-24T08:45:11.609Z,95.61
2023-05-24T08:47:39.012Z,95.31
2023-05-24T08:50:07.069Z,94.92
2023-05-24T08:52:34.308Z,94.00
2023-05-24T08:55:01.890Z,93.48
2023-05-24T08:57:28.715Z,93.26
2023-05-24T08:59:57.890Z,91.82
2023-05-24T09:02:24.522Z,92.63
2023-05-24T09:04:53.136Z,90.73
2023-05-24T09:07:23.616Z,89.37
2023-05-24T09:09:57.044Z,90.07
2023-05-24T09:12:36.400Z,92.67
2023-05-24T09:15:06.940Z,95.32
2023-05-24T09:17:35.093Z,90.03
2023-05-24T09:20:02.391Z,87.32
2023-05-24T09:22:30.808Z,84.89
2023-05-24T09:24:58.799Z,79.49
2023-05-24T09:27:25.277Z,77.78
2023-05-24T09:29:51.859Z,77.04
2023-05-24T09:32:24.619Z,77.16
2023-05-24T09:34:57.333Z,72.48
2023-05-24T09:37:30.687Z,76.25
2023-05-24T09:39:58.912Z,75.97
2023-05-24T09:42:28.634Z,75.99
2023-05-24T09:45:02.143Z,72.59
2023-05-24T09:47:33.350Z,71.26
2023-05-24T09:50:00.995Z,71.62
2023-05-24T09:52:27.978Z,71.10
2023-05-24T09:54:54.826Z,69.35
2023-05-24T09:57:25.145Z,69.87
2023-05-24T09:59:52.442Z,69.89
2023-05-24T10:02:22.972Z,67.90
2023-05-24T10:04:59.318Z,68.88
2023-05-24T10:07:26.759Z,70.29
2023-05-24T10:09:53.700Z,68.85
2023-05-24T10:12:23.090Z,69.47
2023-05-24T10:14:51.058Z,69.53
2023-05-24T10:17:17.640Z,68.13
2023-05-24T10:19:44.904Z,67.53
2023-05-24T10:22:14.111Z,67.13
2023-05-24T10:24:46.473Z,67.52
2023-05-24T10:27:18.416Z,62.90
2023-05-24T10:30:07.022Z,58.39
2023-05-24T10:32:39.139Z,59.51
2023-05-24T10:35:07.627Z,60.99
2023-05-24T10:37:34.376Z,60.33
2023-05-24T10:40:01.194Z,60.41
2023-05-24T10:42:31.440Z,60.24
2023-05-24T10:44:57.998Z,62.31
2023-05-24T10:47:28.631Z,60.65
2023-05-24T10:49:59.122Z,60.13
2023-05-24T10:52:36.159Z,60.44
2023-05-24T10:55:10.533Z,59.45
2023-05-24T10:57:38.372Z,61.13
2023-05-24T11:00:34.529Z,58.50
2023-05-24T11:03:10.817Z,56.76
2023-05-24T11:05:46.848Z,56.30
2023-05-24T11:08:13.687Z,59.47
2023-05-24T11:10:44.027Z,59.53
2023-05-24T11:13:10.906Z,59.50
2023-05-24T11:15:37.515Z,60.68
2023-05-24T11:18:08.505Z,59.89
2023-05-24T11:20:36.332Z,59.46
2023-05-24T11:23:04.178Z,58.50
2023-05-24T11:25:32.984Z,58.02
2023-05-24T11:28:01.387Z,58.31
2023-05-24T11:30:27.955Z,57.35
2023-05-24T11:32:55.072Z,56.92
2023-05-24T11:35:23.121Z,57.80
2023-05-24T11:37:50.663Z,57.78
2023-05-24T11:40:18.139Z,58.09
2023-05-24T11:42:44.611Z,58.53
2023-05-24T11:45:11.376Z,57.66
2023-05-24T11:47:38.573Z,56.17
2023-05-24T11:50:06.983Z,53.21
2023-05-24T11:52:33.488Z,53.76
2023-05-24T11:55:00.006Z,53.58
2023-05-24T11:57:40.692Z,52.62
2023-05-24T12:00:11.383Z,54.35
2023-05-24T12:02:40.309Z,55.01
2023-05-24T12:05:09.790Z,55.84
2023-05-24T12:07:40.682Z,56.67
2023-05-24T12:10:08.236Z,57.53
2023-05-24T12:12:45.204Z,56.26
2023-05-24T12:15:12.824Z,52.87
2023-05-24T12:17:39.371Z,51.72
2023-05-24T12:20:06.735Z,51.20
2023-05-24T12:22:33.361Z,51.62
2023-05-24T12:24:59.825Z,51.63
2023-05-24T12:27:31.179Z,50.67
2023-05-24T12:30:06.949Z,51.61
2023-05-24T12:32:33.402Z,53.64
2023-05-24T12:34:59.828Z,55.19
2023-05-24T12:37:30.232Z,55.90
2023-05-24T12:39:56.725Z,56.37
2023-05-24T12:42:24.063Z,56.03
2023-05-24T12:44:53.060Z,56.34
2023-05-24T12:47:19.689Z,57.63
2023-05-24T12:49:46.996Z,58.02
2023-05-24T12:52:13.791Z,58.08
2023-05-24T12:54:40.491Z,57.16
2023-05-24T12:57:07.010Z,57.43
2023-05-24T12:59:33.741Z,57.00
2023-05-24T13:02:00.711Z,57.76
2023-05-24T13:04:28.053Z,57.17
2023-05-24T13:06:55.467Z,57.04
2023-05-24T13:09:23.292Z,57.50
2023-05-24T13:11:50.302Z,57.72
2023-05-24T13:14:18.138Z,59.02
2023-05-24T13:16:44.828Z,59.11
2023-05-24T13:19:12.418Z,58.38
2023-05-24T13:21:39.271Z,57.96
2023-05-24T13:24:06.896Z,57.65
2023-05-24T13:26:38.143Z,57.79
2023-05-24T13:31:37.267Z,58.31
2023-05-24T13:34:04.233Z,58.51
2023-05-24T13:36:35.092Z,58.53
2023-05-24T13:39:14.845Z,58.63
2023-05-24T13:44:29.515Z,58.57
2023-05-24T13:46:56.607Z,58.12
2023-05-24T13:47:41.322Z,58.53
2023-05-24T13:49:23.163Z,57.16
2023-05-24T13:51:50.120Z,57.02
2023-05-24T13:54:17.525Z,57.17
2023-05-24T13:56:45.027Z,57.00
2023-05-24T13:59:14.662Z,56.59
2023-05-24T14:01:42.209Z,55.69
2023-05-24T14:04:08.740Z,55.38
2023-05-24T14:06:37.702Z,55.30
2023-05-24T14:09:07.964Z,56.01
2023-05-24T14:11:35.006Z,55.03
2023-05-24T14:16:31.897Z,54.97
2023-05-24T14:18:58.487Z,53.82
2023-05-24T14:21:26.909Z,54.27
2023-05-24T14:23:53.778Z,53.58
2023-05-24T14:26:22.012Z,53.69
2023-05-24T14:28:48.505Z,54.13
2023-05-24T14:31:15.118Z,54.15
2023-05-24T14:33:41.571Z,54.10
2023-05-24T14:36:08.572Z,53.91
2023-05-24T14:38:35.054Z,53.80
2023-05-24T14:41:01.673Z,53.39
2023-05-24T14:43:28.335Z,52.75
2023-05-24T14:45:54.957Z,52.96
2023-05-24T14:48:21.478Z,53.56
2023-05-24T14:50:48.075Z,52.92
2023-05-24T14:53:14.984Z,52.92
2023-05-24T14:55:43.453Z,53.35
2023-05-24T14:58:14.080Z,53.22
2023-05-24T15:00:42.590Z,51.83
2023-05-24T15:03:11.355Z,50.78
2023-05-24T15:05:38.789Z,49.67
2023-05-24T15:08:07.038Z,50.00
2023-05-24T15:10:33.644Z,50.14
2023-05-24T15:13:01.249Z,49.99
2023-05-24T15:15:28.436Z,50.29
2023-05-24T15:17:54.894Z,49.96
2023-05-24T15:20:21.457Z,49.24
2023-05-24T15:22:47.907Z,48.72
2023-05-24T15:25:14.422Z,47.92
2023-05-24T15:27:41.017Z,47.10
2023-05-24T15:30:07.987Z,46.21
2023-05-24T15:32:34.427Z,45.57
2023-05-24T15:35:01.277Z,45.81
2023-05-24T15:37:27.837Z,45.33
2023-05-24T15:39:54.425Z,45.92
2023-05-24T15:42:21.731Z,46.41
2023-05-24T15:44:48.308Z,46.13
2023-05-24T15:47:14.794Z,46.31
2023-05-24T15:49:41.277Z,46.51
2023-05-24T15:52:07.985Z,46.08
2023-05-24T15:54:34.561Z,45.89
2023-05-24T15:57:01.867Z,46.15
2023-05-24T15:59:28.884Z,46.82
2023-05-24T16:01:55.531Z,46.62
2023-05-24T16:04:22.028Z,47.35
2023-05-24T16:06:49.225Z,47.75
2023-05-24T16:09:16.056Z,48.20
2023-05-24T16:11:42.558Z,48.41
2023-05-24T16:14:10.291Z,48.87
2023-05-24T16:16:36.953Z,49.13
2023-05-24T16:19:03.543Z,50.15
2023-05-24T16:21:30.064Z,50.29
2023-05-24T16:23:56.496Z,51.64
2023-05-24T16:26:22.940Z,51.37
2023-05-24T16:28:50.165Z,51.76
2023-05-24T16:31:16.706Z,52.67
2023-05-24T16:33:43.160Z,52.62
2023-05-24T16:36:09.706Z,52.72
2023-05-24T16:38:37.417Z,52.93
2023-05-24T16:41:06.018Z,54.23
2023-05-24T16:43:33.009Z,54.26
2023-05-24T16:46:00.892Z,55.38
2023-05-24T16:48:31.479Z,55.62
2023-05-24T16:50:58.668Z,55.96
2023-05-24T16:53:26.801Z,56.45
2023-05-24T16:55:54.692Z,56.75
2023-05-24T16:58:22.326Z,57.68
2023-05-24T17:00:49.118Z,57.80
2023-05-24T17:03:16.026Z,58.31
2023-05-24T17:05:43.489Z,58.16
2023-05-24T17:08:09.992Z,58.49
2023-05-24T17:10:36.597Z,58.52
2023-05-24T17:13:03.043Z,58.99
2023-05-24T17:15:29.498Z,58.97
2023-05-24T17:17:56.252Z,59.26
2023-05-24T17:20:23.000Z,59.70
2023-05-24T17:22:49.654Z,60.17
2023-05-24T17:25:16.406Z,60.90
2023-05-24T17:27:42.843Z,61.25
2023-05-24T17:30:09.957Z,61.55
2023-05-24T17:32:36.671Z,61.80
2023-05-24T17:35:03.795Z,62.24
2023-05-24T17:37:30.468Z,62.81
2023-05-24T17:39:57.002Z,63.29
2023-05-24T17:42:24.934Z,63.55
2023-05-24T17:44:51.486Z,63.92
2023-05-24T17:47:18.517Z,65.18
2023-05-24T17:49:45.178Z,65.77
2023-05-24T17:52:14.494Z,65.90
2023-05-24T17:54:41.285Z,66.83
2023-05-24T17:57:07.954Z,67.09
2023-05-24T17:59:34.414Z,68.43
2023-05-24T18:02:00.933Z,68.98
2023-05-24T18:04:27.412Z,70.05
2023-05-24T18:06:54.714Z,69.98
2023-05-24T18:09:21.552Z,70.78
2023-05-24T18:11:48.164Z,71.66
2023-05-24T18:14:14.783Z,71.74
2023-05-24T18:16:41.486Z,72.95
2023-05-24T18:19:08.132Z,73.45
2023-05-24T18:21:34.752Z,73.05
2023-05-24T18:24:01.268Z,73.37
2023-05-24T18:26:28.034Z,73.89
2023-05-24T18:28:54.537Z,73.97
2023-05-24T18:31:21.889Z,74.01
2023-05-24T18:33:48.705Z,74.90
2023-05-24T18:36:15.278Z,74.23
2023-05-24T18:38:42.630Z,75.30
2023-05-24T18:41:12.301Z,75.35
2023-05-24T18:43:39.445Z,75.63
2023-05-24T18:46:06.003Z,76.09
2023-05-24T18:48:32.474Z,76.23
2023-05-24T18:50:58.931Z,76.77
2023-05-24T18:53:25.934Z,77.18
2023-05-24T18:55:52.500Z,77.20
2023-05-24T18:58:18.965Z,77.39
2023-05-24T19:00:45.613Z,76.32
2023-05-24T19:03:13.332Z,76.45
2023-05-24T19:05:43.325Z,77.38
2023-05-24T19:08:10.654Z,78.46
2023-05-24T19:10:37.164Z,79.22
2023-05-24T19:13:03.677Z,78.73
2023-05-24T19:15:30.150Z,79.47
2023-05-24T19:17:57.857Z,79.60
2023-05-24T19:20:24.458Z,81.32
2023-05-24T19:22:50.972Z,82.80
2023-05-24T19:25:17.506Z,84.46
2023-05-24T19:27:55.124Z,86.28
2023-05-24T19:30:25.519Z,87.67
2023-05-24T19:32:52.064Z,88.95
2023-05-24T19:35:18.695Z,90.76
2023-05-24T19:37:45.252Z,91.51
2023-05-24T19:40:11.804Z,91.94
2023-05-24T19:42:38.301Z,92.64
2023-05-24T19:45:05.364Z,93.38
2023-05-24T19:47:31.932Z,94.98
2023-05-24T19:49:58.439Z,96.50
2023-05-24T19:52:24.968Z,98.65
2023-05-24T19:54:51.422Z,99.58
2023-05-24T19:57:17.852Z,100.00
2023-05-24T19:59:44.356Z,100.00
2023-05-24T20:02:10.807Z,100.00
2023-05-24T20:04:41.799Z,100.00
2023-05-24T20:07:08.874Z,100.00
2023-05-24T20:09:35.828Z,100.00
2023-05-24T20:12:02.691Z,100.00
2023-05-24T20:14:31.513Z,100.00
2023-05-24T20:16:59.008Z,100.00
2023-05-24T20:19:27.907Z,100.00
2023-05-24T20:21:54.455Z,100.00
2023-05-24T20:24:21.004Z,100.00
2023-05-24T20:26:47.542Z,100.00
2023-05-24T20:29:14.250Z,100.00
2023-05-24T20:31:41.369Z,100.00
2023-05-24T20:34:08.014Z,100.00
2023-05-24T20:36:34.483Z,100.00
2023-05-24T20:39:00.932Z,100.00
2023-05-24T20:41:30.351Z,100.00
2023-05-24T20:43:56.865Z,100.00
2023-05-24T20:46:23.496Z,100.00
2023-05-24T20:48:50.734Z,100.00
2023-05-24T20:51:18.665Z,100.00
2023-05-24T20:53:45.940Z,100.00
2023-05-24T20:56:12.426Z,100.00
2023-05-24T20:58:41.138Z,100.00
2023-05-24T21:01:08.347Z,100.00
2023-05-24T21:03:34.889Z,100.00
2023-05-24T21:06:01.401Z,100.00
2023-05-24T21:08:27.843Z,100.00
2023-05-24T21:10:55.732Z,100.00
2023-05-24T21:13:22.504Z,100.00
2023-05-24T21:15:50.516Z,100.00
2023-05-24T21:18:17.111Z,100.00
2023-05-24T21:20:43.608Z,100.00
2023-05-24T21:23:10.680Z,100.00
2023-05-24T21:25:37.258Z,100.00
2023-05-24T21:28:03.775Z,100.00
2023-05-24T21:30:30.710Z,100.00
2023-05-24T21:32:57.181Z,100.00
2023-05-24T21:35:23.613Z,100.00
2023-05-24T21:37:50.115Z,100.00
2023-05-24T21:40:16.672Z,100.00
2023-05-24T21:42:44.254Z,100.00
2023-05-24T21:45:11.168Z,100.00
2023-05-24T21:47:37.756Z,100.00
2023-05-24T21:50:05.290Z,100.00
2023-05-24T21:52:31.797Z,100.00
2023-05-24T21:54:58.268Z,100.00
2023-05-24T21:57:26.487Z,100.00
2023-05-24T21:59:53.123Z,100.00
2023-05-24T22:02:19.767Z,100.00
2023-05-24T22:04:46.338Z,100.00
2023-05-24T22:07:13.859Z,100.00
2023-05-24T22:09:40.399Z,100.00
2023-05-24T22:12:06.961Z,100.00
2023-05-24T22:14:33.430Z,100.00
2023-05-24T22:16:59.896Z,100.00
2023-05-24T22:19:39.897Z,100.00
2023-05-24T22:22:08.427Z,100.00
2023-05-24T22:24:34.936Z,100.00
2023-05-24T22:27:02.564Z,100.00
2023-05-24T22:29:29.149Z,100.00
2023-05-24T22:31:55.719Z,100.00
2023-05-24T22:34:28.997Z,100.00
2023-05-24T22:36:57.170Z,100.00
2023-05-24T22:39:23.908Z,100.00
2023-05-24T22:41:51.631Z,100.00
2023-05-24T22:44:18.044Z,100.00
2023-05-24T22:46:44.524Z,100.00
2023-05-24T22:49:13.415Z,100.00
2023-05-24T22:51:44.111Z,100.00
2023-05-24T22:54:14.012Z,100.00
2023-05-24T22:56:40.428Z,100.00
2023-05-24T22:59:07.453Z,100.00
2023-05-24T23:01:34.298Z,100.00
2023-05-24T23:04:11.961Z,100.00
2023-05-24T23:06:45.612Z,100.00
2023-05-24T23:09:15.164Z,100.00
2023-05-24T23:11:42.868Z,100.00
2023-05-24T23:14:11.381Z,100.00
2023-05-24T23:16:40.180Z,100.00
2023-05-24T23:19:06.933Z,100.00
2023-05-24T23:21:33.765Z,100.00
2023-05-24T23:24:02.147Z,100.00
2023-05-24T23:26:28.836Z,100.00
2023-05-24T23:28:55.470Z,100.00
2023-05-24T23:31:22.278Z,100.00
2023-05-24T23:33:48.762Z,100.00
2023-05-24T23:36:15.312Z,100.00
2023-05-24T23:38:41.790Z,100.00
2023-05-24T23:41:08.341Z,100.00
2023-05-24T23:43:34.961Z,100.00
2023-05-24T23:46:01.468Z,100.00
2023-05-24T23:48:27.890Z,100.00
2023-05-24T23:50:54.935Z,100.00
2023-05-24T23:53:21.819Z,100.00
2023-05-24T23:55:48.335Z,100.00
2023-05-24T23:58:14.756Z,100.00
